sensor_id;sensor_type;location;lat;lon;timestamp;P1;durP1;ratioP1;P2;durP2;ratioP2
505;SDS011;551;48.524;9.056;2023-05-09T00:01:39;42.83;;;16.00;;
505;SDS011;551;48.524;9.056;2023-05-09T00:04:05;30.50;;;14.73;;
505;SDS011;551;48.524;9.056;2023-05-09T00:06:31;36.23;;;17.43;;
505;SDS011;551;48.524;9.056;2023-05-09T00:08:57;32.50;;;15.80;;
505;SDS011;551;48.524;9.056;2023-05-09T00:11:23;36.33;;;17.77;;
505;SDS011;551;48.524;9.056;2023-05-09T00:13:49;90.50;;;21.90;;
505;SDS011;551;48.524;9.056;2023-05-09T00:16:15;67.47;;;20.97;;
505;SDS011;551;48.524;9.056;2023-05-09T00:18:41;109.50;;;20.80;;
505;SDS011;551;48.524;9.056;2023-05-09T00:21:08;86.93;;;20.53;;
505;SDS011;551;48.524;9.056;2023-05-09T00:23:34;100.30;;;20.47;;
505;SDS011;551;48.524;9.056;2023-05-09T00:26:00;140.60;;;22.80;;
505;SDS011;551;48.524;9.056;2023-05-09T00:28:26;64.03;;;19.80;;
505;SDS011;551;48.524;9.056;2023-05-09T00:30:52;47.13;;;19.30;;
505;SDS011;551;48.524;9.056;2023-05-09T00:33:18;52.73;;;20.60;;
505;SDS011;551;48.524;9.056;2023-05-09T00:35:44;92.03;;;20.20;;
505;SDS011;551;48.524;9.056;2023-05-09T00:38:10;56.70;;;19.53;;
505;SDS011;551;48.524;9.056;2023-05-09T00:40:35;67.00;;;19.00;;
505;SDS011;551;48.524;9.056;2023-05-09T00:43:01;75.17;;;19.90;;
505;SDS011;551;48.524;9.056;2023-05-09T00:45:26;64.80;;;18.30;;
505;SDS011;551;48.524;9.056;2023-05-09T00:47:52;64.57;;;18.33;;
505;SDS011;551;48.524;9.056;2023-05-09T00:50:18;79.73;;;19.63;;
505;SDS011;551;48.524;9.056;2023-05-09T00:52:43;68.73;;;19.57;;
505;SDS011;551;48.524;9.056;2023-05-09T00:55:09;57.77;;;18.30;;
505;SDS011;551;48.524;9.056;2023-05-09T00:57:35;72.07;;;18.23;;
505;SDS011;551;48.524;9.056;2023-05-09T01:00:00;64.50;;;19.40;;
505;SDS011;551;48.524;9.056;2023-05-09T01:02:28;71.83;;;20.13;;
505;SDS011;551;48.524;9.056;2023-05-09T01:04:54;101.73;;;20.57;;
505;SDS011;551;48.524;9.056;2023-05-09T01:07:32;42.17;;;17.47;;
505;SDS011;551;48.524;9.056;2023-05-09T01:10:15;35.30;;;15.67;;
505;SDS011;551;48.524;9.056;2023-05-09T01:13:05;30.07;;;17.10;;
505;SDS011;551;48.524;9.056;2023-05-09T01:15:53;21.57;;;15.40;;
505;SDS011;551;48.524;9.056;2023-05-09T01:18:39;17.80;;;13.83;;
505;SDS011;551;48.524;9.056;2023-05-09T01:21:10;22.63;;;14.80;;
505;SDS011;551;48.524;9.056;2023-05-09T01:32:13;25.60;;;14.00;;
505;SDS011;551;48.524;9.056;2023-05-09T01:34:43;21.90;;;15.33;;
505;SDS011;551;48.524;9.056;2023-05-09T01:37:10;26.47;;;15.37;;
505;SDS011;551;48.524;9.056;2023-05-09T01:39:38;23.53;;;15.07;;
505;SDS011;551;48.524;9.056;2023-05-09T01:42:06;23.53;;;15.47;;
505;SDS011;551;48.524;9.056;2023-05-09T01:44:38;21.37;;;14.27;;
505;SDS011;551;48.524;9.056;2023-05-09T01:47:05;28.20;;;15.77;;
505;SDS011;551;48.524;9.056;2023-05-09T01:49:32;37.33;;;17.80;;
505;SDS011;551;48.524;9.056;2023-05-09T01:52:00;26.70;;;15.97;;
505;SDS011;551;48.524;9.056;2023-05-09T01:54:29;29.03;;;16.47;;
505;SDS011;551;48.524;9.056;2023-05-09T01:56:56;35.63;;;14.70;;
505;SDS011;551;48.524;9.056;2023-05-09T01:59:23;40.37;;;16.90;;
505;SDS011;551;48.524;9.056;2023-05-09T02:01:50;71.60;;;17.03;;
505;SDS011;551;48.524;9.056;2023-05-09T02:04:16;42.17;;;17.47;;
505;SDS011;551;48.524;9.056;2023-05-09T02:06:43;69.17;;;18.50;;
505;SDS011;551;48.524;9.056;2023-05-09T02:09:10;45.70;;;16.67;;
505;SDS011;551;48.524;9.056;2023-05-09T02:11:37;91.73;;;18.50;;
505;SDS011;551;48.524;9.056;2023-05-09T02:14:02;56.90;;;16.90;;
505;SDS011;551;48.524;9.056;2023-05-09T02:16:29;49.87;;;16.90;;
505;SDS011;551;48.524;9.056;2023-05-09T02:18:54;40.83;;;15.90;;
505;SDS011;551;48.524;9.056;2023-05-09T02:21:20;44.73;;;15.83;;
505;SDS011;551;48.524;9.056;2023-05-09T02:23:45;36.13;;;15.73;;
505;SDS011;551;48.524;9.056;2023-05-09T02:26:11;28.60;;;17.77;;
505;SDS011;551;48.524;9.056;2023-05-09T02:28:37;21.87;;;15.30;;
505;SDS011;551;48.524;9.056;2023-05-09T02:31:04;29.17;;;17.00;;
505;SDS011;551;48.524;9.056;2023-05-09T02:33:34;23.00;;;15.20;;
505;SDS011;551;48.524;9.056;2023-05-09T02:36:01;26.73;;;15.13;;
505;SDS011;551;48.524;9.056;2023-05-09T02:38:26;21.33;;;13.97;;
505;SDS011;551;48.524;9.056;2023-05-09T02:40:52;23.30;;;15.67;;
505;SDS011;551;48.524;9.056;2023-05-09T02:43:17;27.30;;;15.30;;
505;SDS011;551;48.524;9.056;2023-05-09T02:45:43;23.73;;;15.73;;
505;SDS011;551;48.524;9.056;2023-05-09T02:48:09;19.80;;;13.80;;
505;SDS011;551;48.524;9.056;2023-05-09T02:50:34;24.77;;;15.33;;
505;SDS011;551;48.524;9.056;2023-05-09T02:53:02;22.60;;;14.50;;
505;SDS011;551;48.524;9.056;2023-05-09T02:55:28;23.77;;;15.10;;
505;SDS011;551;48.524;9.056;2023-05-09T02:57:54;25.33;;;15.07;;
505;SDS011;551;48.524;9.056;2023-05-09T03:00:19;25.90;;;17.63;;
505;SDS011;551;48.524;9.056;2023-05-09T03:02:45;25.83;;;16.70;;
505;SDS011;551;48.524;9.056;2023-05-09T03:05:11;22.77;;;15.10;;
505;SDS011;551;48.524;9.056;2023-05-09T03:07:36;23.20;;;14.80;;
505;SDS011;551;48.524;9.056;2023-05-09T03:10:02;28.40;;;16.83;;
505;SDS011;551;48.524;9.056;2023-05-09T03:12:28;28.80;;;16.47;;
505;SDS011;551;48.524;9.056;2023-05-09T03:14:53;25.53;;;15.43;;
505;SDS011;551;48.524;9.056;2023-05-09T03:17:19;23.77;;;15.90;;
505;SDS011;551;48.524;9.056;2023-05-09T03:19:47;31.80;;;17.27;;
505;SDS011;551;48.524;9.056;2023-05-09T03:22:13;26.57;;;15.17;;
505;SDS011;551;48.524;9.056;2023-05-09T03:24:39;24.30;;;16.00;;
505;SDS011;551;48.524;9.056;2023-05-09T03:27:04;29.50;;;16.53;;
505;SDS011;551;48.524;9.056;2023-05-09T03:29:30;28.43;;;16.20;;
505;SDS011;551;48.524;9.056;2023-05-09T03:31:57;27.27;;;17.00;;
505;SDS011;551;48.524;9.056;2023-05-09T03:34:23;27.10;;;16.60;;
505;SDS011;551;48.524;9.056;2023-05-09T03:36:48;26.73;;;17.17;;
505;SDS011;551;48.524;9.056;2023-05-09T03:39:13;27.07;;;16.30;;
505;SDS011;551;48.524;9.056;2023-05-09T03:41:39;25.83;;;15.40;;
505;SDS011;551;48.524;9.056;2023-05-09T03:44:05;28.40;;;16.37;;
505;SDS011;551;48.524;9.056;2023-05-09T03:46:31;26.47;;;16.17;;
505;SDS011;551;48.524;9.056;2023-05-09T03:48:56;24.83;;;15.67;;
505;SDS011;551;48.524;9.056;2023-05-09T03:51:22;26.30;;;16.00;;
505;SDS011;551;48.524;9.056;2023-05-09T03:53:48;25.43;;;15.97;;
505;SDS011;551;48.524;9.056;2023-05-09T03:56:13;23.50;;;15.20;;
505;SDS011;551;48.524;9.056;2023-05-09T03:58:39;20.30;;;12.83;;
505;SDS011;551;48.524;9.056;2023-05-09T04:01:04;17.43;;;12.23;;
505;SDS011;551;48.524;9.056;2023-05-09T04:03:30;22.23;;;12.10;;
505;SDS011;551;48.524;9.056;2023-05-09T04:05:56;46.73;;;13.13;;
505;SDS011;551;48.524;9.056;2023-05-09T04:08:22;30.47;;;12.97;;
505;SDS011;551;48.524;9.056;2023-05-09T04:10:48;21.23;;;11.27;;
505;SDS011;551;48.524;9.056;2023-05-09T04:13:14;15.13;;;9.73;;
505;SDS011;551;48.524;9.056;2023-05-09T04:15:43;39.93;;;13.40;;
505;SDS011;551;48.524;9.056;2023-05-09T04:18:09;20.90;;;11.00;;
505;SDS011;551;48.524;9.056;2023-05-09T04:20:34;40.60;;;12.70;;
505;SDS011;551;48.524;9.056;2023-05-09T04:23:00;15.83;;;11.13;;
505;SDS011;551;48.524;9.056;2023-05-09T04:25:26;15.40;;;11.67;;
505;SDS011;551;48.524;9.056;2023-05-09T04:27:51;18.13;;;11.77;;
505;SDS011;551;48.524;9.056;2023-05-09T04:30:17;17.77;;;11.17;;
505;SDS011;551;48.524;9.056;2023-05-09T04:32:42;18.87;;;12.47;;
505;SDS011;551;48.524;9.056;2023-05-09T04:35:11;19.23;;;12.70;;
505;SDS011;551;48.524;9.056;2023-05-09T04:37:37;20.83;;;13.47;;
505;SDS011;551;48.524;9.056;2023-05-09T04:40:03;18.17;;;12.63;;
505;SDS011;551;48.524;9.056;2023-05-09T04:42:29;21.30;;;12.30;;
505;SDS011;551;48.524;9.056;2023-05-09T04:44:57;17.30;;;11.53;;
505;SDS011;551;48.524;9.056;2023-05-09T04:47:23;16.90;;;12.20;;
505;SDS011;551;48.524;9.056;2023-05-09T04:49:49;21.90;;;13.00;;
505;SDS011;551;48.524;9.056;2023-05-09T04:52:14;18.73;;;11.90;;
505;SDS011;551;48.524;9.056;2023-05-09T04:54:40;20.37;;;14.10;;
505;SDS011;551;48.524;9.056;2023-05-09T04:57:05;22.63;;;14.10;;
505;SDS011;551;48.524;9.056;2023-05-09T04:59:31;23.07;;;14.33;;
505;SDS011;551;48.524;9.056;2023-05-09T05:01:56;18.73;;;13.10;;
505;SDS011;551;48.524;9.056;2023-05-09T05:04:22;17.03;;;12.20;;
505;SDS011;551;48.524;9.056;2023-05-09T05:06:48;19.73;;;13.33;;
505;SDS011;551;48.524;9.056;2023-05-09T05:09:13;20.57;;;13.30;;
505;SDS011;551;48.524;9.056;2023-05-09T05:11:39;18.53;;;13.13;;
505;SDS011;551;48.524;9.056;2023-05-09T05:14:04;20.40;;;13.00;;
505;SDS011;551;48.524;9.056;2023-05-09T05:16:30;18.97;;;12.63;;
505;SDS011;551;48.524;9.056;2023-05-09T05:18:55;14.97;;;12.00;;
505;SDS011;551;48.524;9.056;2023-05-09T05:21:21;23.53;;;12.30;;
505;SDS011;551;48.524;9.056;2023-05-09T05:23:46;18.00;;;12.97;;
505;SDS011;551;48.524;9.056;2023-05-09T05:26:12;18.40;;;11.90;;
505;SDS011;551;48.524;9.056;2023-05-09T05:28:37;17.30;;;11.73;;
505;SDS011;551;48.524;9.056;2023-05-09T05:31:03;16.90;;;12.50;;
505;SDS011;551;48.524;9.056;2023-05-09T05:33:28;18.37;;;13.43;;
505;SDS011;551;48.524;9.056;2023-05-09T05:35:54;22.90;;;15.00;;
505;SDS011;551;48.524;9.056;2023-05-09T05:38:19;19.83;;;13.77;;
505;SDS011;551;48.524;9.056;2023-05-09T05:40:45;21.27;;;14.03;;
505;SDS011;551;48.524;9.056;2023-05-09T05:43:11;21.00;;;14.20;;
505;SDS011;551;48.524;9.056;2023-05-09T05:45:36;18.33;;;13.43;;
505;SDS011;551;48.524;9.056;2023-05-09T05:48:02;17.73;;;12.77;;
505;SDS011;551;48.524;9.056;2023-05-09T05:50:27;25.43;;;14.33;;
505;SDS011;551;48.524;9.056;2023-05-09T05:52:53;19.20;;;12.20;;
505;SDS011;551;48.524;9.056;2023-05-09T05:55:18;23.63;;;14.00;;
505;SDS011;551;48.524;9.056;2023-05-09T05:57:44;18.47;;;13.93;;
505;SDS011;551;48.524;9.056;2023-05-09T06:00:11;18.73;;;12.90;;
505;SDS011;551;48.524;9.056;2023-05-09T06:02:40;19.47;;;13.57;;
505;SDS011;551;48.524;9.056;2023-05-09T06:05:07;22.10;;;13.27;;
505;SDS011;551;48.524;9.056;2023-05-09T06:07:33;18.60;;;12.70;;
505;SDS011;551;48.524;9.056;2023-05-09T06:10:02;19.40;;;14.33;;
505;SDS011;551;48.524;9.056;2023-05-09T06:12:28;16.53;;;12.80;;
505;SDS011;551;48.524;9.056;2023-05-09T06:14:54;17.50;;;13.33;;
505;SDS011;551;48.524;9.056;2023-05-09T06:17:19;21.13;;;12.77;;
505;SDS011;551;48.524;9.056;2023-05-09T06:19:45;14.40;;;12.10;;
505;SDS011;551;48.524;9.056;2023-05-09T06:22:10;18.53;;;13.07;;
505;SDS011;551;48.524;9.056;2023-05-09T06:24:36;19.70;;;13.80;;
505;SDS011;551;48.524;9.056;2023-05-09T06:27:01;17.90;;;12.67;;
505;SDS011;551;48.524;9.056;2023-05-09T06:29:27;18.33;;;13.20;;
505;SDS011;551;48.524;9.056;2023-05-09T06:31:53;16.00;;;12.20;;
505;SDS011;551;48.524;9.056;2023-05-09T06:34:18;14.63;;;11.20;;
505;SDS011;551;48.524;9.056;2023-05-09T06:36:44;17.23;;;12.87;;
505;SDS011;551;48.524;9.056;2023-05-09T06:39:09;15.77;;;13.50;;
505;SDS011;551;48.524;9.056;2023-05-09T06:41:35;15.53;;;12.60;;
505;SDS011;551;48.524;9.056;2023-05-09T06:44:00;15.00;;;13.17;;
505;SDS011;551;48.524;9.056;2023-05-09T06:46:26;16.57;;;13.77;;
505;SDS011;551;48.524;9.056;2023-05-09T06:48:52;16.83;;;13.20;;
505;SDS011;551;48.524;9.056;2023-05-09T06:51:17;19.57;;;13.53;;
505;SDS011;551;48.524;9.056;2023-05-09T06:53:43;21.27;;;13.83;;
505;SDS011;551;48.524;9.056;2023-05-09T06:56:08;18.77;;;14.03;;
505;SDS011;551;48.524;9.056;2023-05-09T06:58:34;17.30;;;12.17;;
505;SDS011;551;48.524;9.056;2023-05-09T07:01:00;14.90;;;12.40;;
505;SDS011;551;48.524;9.056;2023-05-09T07:03:25;14.37;;;12.83;;
505;SDS011;551;48.524;9.056;2023-05-09T07:05:51;18.40;;;13.50;;
505;SDS011;551;48.524;9.056;2023-05-09T07:08:17;15.77;;;13.93;;
505;SDS011;551;48.524;9.056;2023-05-09T07:10:42;15.43;;;13.37;;
505;SDS011;551;48.524;9.056;2023-05-09T07:13:08;15.13;;;13.10;;
505;SDS011;551;48.524;9.056;2023-05-09T07:15:33;13.50;;;12.10;;
505;SDS011;551;48.524;9.056;2023-05-09T07:17:59;13.80;;;12.07;;
505;SDS011;551;48.524;9.056;2023-05-09T07:20:24;17.17;;;13.63;;
505;SDS011;551;48.524;9.056;2023-05-09T07:22:50;18.90;;;12.90;;
505;SDS011;551;48.524;9.056;2023-05-09T07:25:15;16.43;;;14.00;;
505;SDS011;551;48.524;9.056;2023-05-09T07:27:41;17.53;;;13.33;;
505;SDS011;551;48.524;9.056;2023-05-09T07:30:07;17.93;;;13.07;;
505;SDS011;551;48.524;9.056;2023-05-09T07:32:33;15.07;;;11.90;;
505;SDS011;551;48.524;9.056;2023-05-09T07:34:59;16.40;;;12.47;;
505;SDS011;551;48.524;9.056;2023-05-09T07:37:24;15.43;;;12.97;;
505;SDS011;551;48.524;9.056;2023-05-09T07:39:50;18.20;;;15.53;;
505;SDS011;551;48.524;9.056;2023-05-09T07:42:16;18.33;;;13.77;;
505;SDS011;551;48.524;9.056;2023-05-09T07:44:41;13.17;;;11.87;;
505;SDS011;551;48.524;9.056;2023-05-09T07:47:07;14.97;;;12.67;;
505;SDS011;551;48.524;9.056;2023-05-09T07:49:33;14.40;;;12.90;;
505;SDS011;551;48.524;9.056;2023-05-09T07:51:59;17.17;;;11.33;;
505;SDS011;551;48.524;9.056;2023-05-09T07:54:25;12.07;;;10.83;;
505;SDS011;551;48.524;9.056;2023-05-09T07:56:50;13.27;;;11.87;;
505;SDS011;551;48.524;9.056;2023-05-09T07:59:16;12.63;;;11.43;;
505;SDS011;551;48.524;9.056;2023-05-09T08:01:42;13.70;;;12.40;;
505;SDS011;551;48.524;9.056;2023-05-09T08:04:08;13.87;;;11.77;;
505;SDS011;551;48.524;9.056;2023-05-09T08:06:34;13.00;;;11.10;;
505;SDS011;551;48.524;9.056;2023-05-09T08:08:59;13.07;;;11.70;;
505;SDS011;551;48.524;9.056;2023-05-09T08:11:25;12.33;;;11.17;;
505;SDS011;551;48.524;9.056;2023-05-09T08:13:51;12.73;;;10.60;;
505;SDS011;551;48.524;9.056;2023-05-09T08:16:17;12.33;;;11.20;;
505;SDS011;551;48.524;9.056;2023-05-09T08:18:43;10.80;;;9.70;;
505;SDS011;551;48.524;9.056;2023-05-09T08:21:09;9.90;;;9.03;;
505;SDS011;551;48.524;9.056;2023-05-09T08:23:35;12.53;;;10.60;;
505;SDS011;551;48.524;9.056;2023-05-09T08:26:00;12.37;;;11.07;;
505;SDS011;551;48.524;9.056;2023-05-09T08:28:26;12.33;;;10.63;;
505;SDS011;551;48.524;9.056;2023-05-09T08:30:52;12.23;;;9.90;;
505;SDS011;551;48.524;9.056;2023-05-09T08:33:18;9.53;;;8.63;;
505;SDS011;551;48.524;9.056;2023-05-09T08:35:44;9.97;;;9.17;;
505;SDS011;551;48.524;9.056;2023-05-09T08:38:14;11.37;;;10.20;;
505;SDS011;551;48.524;9.056;2023-05-09T08:40:39;12.37;;;11.07;;
505;SDS011;551;48.524;9.056;2023-05-09T08:43:06;10.97;;;9.97;;
505;SDS011;551;48.524;9.056;2023-05-09T08:45:33;11.53;;;10.47;;
505;SDS011;551;48.524;9.056;2023-05-09T08:48:02;11.17;;;10.07;;
505;SDS011;551;48.524;9.056;2023-05-09T08:50:28;14.03;;;12.53;;
505;SDS011;551;48.524;9.056;2023-05-09T08:52:54;13.47;;;12.07;;
505;SDS011;551;48.524;9.056;2023-05-09T08:55:20;13.90;;;10.30;;
505;SDS011;551;48.524;9.056;2023-05-09T08:57:46;15.13;;;10.73;;
505;SDS011;551;48.524;9.056;2023-05-09T09:00:12;12.83;;;11.53;;
505;SDS011;551;48.524;9.056;2023-05-09T09:02:41;12.80;;;11.20;;
505;SDS011;551;48.524;9.056;2023-05-09T09:05:07;11.23;;;9.90;;
505;SDS011;551;48.524;9.056;2023-05-09T09:07:33;12.20;;;10.90;;
505;SDS011;551;48.524;9.056;2023-05-09T09:10:02;10.47;;;9.13;;
505;SDS011;551;48.524;9.056;2023-05-09T09:12:28;10.43;;;8.90;;
505;SDS011;551;48.524;9.056;2023-05-09T09:14:55;11.80;;;9.30;;
505;SDS011;551;48.524;9.056;2023-05-09T09:17:25;12.60;;;10.20;;
505;SDS011;551;48.524;9.056;2023-05-09T09:19:55;7.80;;;7.00;;
505;SDS011;551;48.524;9.056;2023-05-09T09:22:24;9.27;;;6.43;;
505;SDS011;551;48.524;9.056;2023-05-09T09:24:58;7.10;;;6.40;;
505;SDS011;551;48.524;9.056;2023-05-09T09:27:24;7.60;;;6.90;;
505;SDS011;551;48.524;9.056;2023-05-09T09:29:49;8.07;;;7.37;;
505;SDS011;551;48.524;9.056;2023-05-09T09:32:15;7.50;;;6.70;;
505;SDS011;551;48.524;9.056;2023-05-09T09:34:42;7.70;;;7.10;;
505;SDS011;551;48.524;9.056;2023-05-09T09:37:07;8.30;;;5.67;;
505;SDS011;551;48.524;9.056;2023-05-09T09:39:33;7.80;;;6.30;;
505;SDS011;551;48.524;9.056;2023-05-09T09:42:08;8.27;;;7.50;;
505;SDS011;551;48.524;9.056;2023-05-09T09:44:35;10.60;;;5.90;;
505;SDS011;551;48.524;9.056;2023-05-09T09:47:00;5.90;;;5.40;;
505;SDS011;551;48.524;9.056;2023-05-09T09:49:25;5.73;;;5.33;;
505;SDS011;551;48.524;9.056;2023-05-09T09:51:52;6.13;;;5.63;;
505;SDS011;551;48.524;9.056;2023-05-09T09:54:19;5.80;;;5.20;;
505;SDS011;551;48.524;9.056;2023-05-09T09:56:46;5.83;;;5.20;;
505;SDS011;551;48.524;9.056;2023-05-09T09:59:13;4.47;;;3.33;;
505;SDS011;551;48.524;9.056;2023-05-09T10:01:52;5.23;;;4.10;;
505;SDS011;551;48.524;9.056;2023-05-09T10:04:18;4.83;;;4.40;;
505;SDS011;551;48.524;9.056;2023-05-09T10:06:54;5.73;;;5.23;;
505;SDS011;551;48.524;9.056;2023-05-09T10:09:21;5.30;;;4.80;;
505;SDS011;551;48.524;9.056;2023-05-09T10:11:48;6.90;;;6.07;;
505;SDS011;551;48.524;9.056;2023-05-09T10:14:20;11.60;;;5.93;;
505;SDS011;551;48.524;9.056;2023-05-09T10:16:48;6.40;;;5.77;;
505;SDS011;551;48.524;9.056;2023-05-09T10:19:16;5.83;;;5.27;;
505;SDS011;551;48.524;9.056;2023-05-09T10:21:45;6.20;;;5.60;;
505;SDS011;551;48.524;9.056;2023-05-09T10:24:17;5.83;;;5.33;;
505;SDS011;551;48.524;9.056;2023-05-09T10:26:50;4.63;;;4.27;;
505;SDS011;551;48.524;9.056;2023-05-09T10:29:21;4.40;;;4.10;;
505;SDS011;551;48.524;9.056;2023-05-09T10:31:49;4.40;;;4.10;;
505;SDS011;551;48.524;9.056;2023-05-09T10:34:22;5.37;;;4.00;;
505;SDS011;551;48.524;9.056;2023-05-09T10:36:50;4.50;;;4.00;;
505;SDS011;551;48.524;9.056;2023-05-09T10:39:16;5.20;;;4.63;;
505;SDS011;551;48.524;9.056;2023-05-09T10:41:42;5.03;;;4.53;;
505;SDS011;551;48.524;9.056;2023-05-09T10:44:08;4.60;;;4.20;;
505;SDS011;551;48.524;9.056;2023-05-09T10:46:34;7.50;;;3.90;;
505;SDS011;551;48.524;9.056;2023-05-09T10:49:00;4.40;;;4.00;;
505;SDS011;551;48.524;9.056;2023-05-09T10:51:26;3.90;;;3.63;;
505;SDS011;551;48.524;9.056;2023-05-09T10:53:53;4.87;;;4.20;;
505;SDS011;551;48.524;9.056;2023-05-09T10:56:23;4.17;;;3.87;;
505;SDS011;551;48.524;9.056;2023-05-09T10:58:50;3.40;;;3.10;;
505;SDS011;551;48.524;9.056;2023-05-09T11:01:26;4.30;;;3.90;;
505;SDS011;551;48.524;9.056;2023-05-09T11:03:58;4.90;;;4.50;;
505;SDS011;551;48.524;9.056;2023-05-09T11:06:47;4.50;;;4.10;;
505;SDS011;551;48.524;9.056;2023-05-09T11:09:31;4.50;;;4.10;;
505;SDS011;551;48.524;9.056;2023-05-09T11:17:00;4.40;;;4.10;;
505;SDS011;551;48.524;9.056;2023-05-09T11:19:42;4.37;;;3.97;;
505;SDS011;551;48.524;9.056;2023-05-09T11:22:24;5.00;;;3.90;;
505;SDS011;551;48.524;9.056;2023-05-09T11:25:01;4.33;;;3.93;;
505;SDS011;551;48.524;9.056;2023-05-09T11:27:37;5.80;;;5.20;;
505;SDS011;551;48.524;9.056;2023-05-09T11:30:07;6.23;;;4.60;;
505;SDS011;551;48.524;9.056;2023-05-09T11:32:45;4.37;;;4.07;;
505;SDS011;551;48.524;9.056;2023-05-09T11:35:16;6.93;;;4.27;;
505;SDS011;551;48.524;9.056;2023-05-09T11:37:47;5.27;;;4.77;;
505;SDS011;551;48.524;9.056;2023-05-09T11:40:26;4.80;;;4.40;;
505;SDS011;551;48.524;9.056;2023-05-09T11:42:53;4.70;;;4.30;;
505;SDS011;551;48.524;9.056;2023-05-09T11:45:20;4.50;;;4.10;;
505;SDS011;551;48.524;9.056;2023-05-09T11:47:48;7.63;;;5.17;;
505;SDS011;551;48.524;9.056;2023-05-09T11:50:15;4.77;;;4.13;;
505;SDS011;551;48.524;9.056;2023-05-09T11:52:43;4.10;;;3.50;;
505;SDS011;551;48.524;9.056;2023-05-09T11:55:09;6.50;;;5.17;;
505;SDS011;551;48.524;9.056;2023-05-09T11:57:43;5.47;;;5.07;;
505;SDS011;551;48.524;9.056;2023-05-09T12:00:12;6.40;;;4.90;;
505;SDS011;551;48.524;9.056;2023-05-09T12:02:42;5.17;;;4.67;;
505;SDS011;551;48.524;9.056;2023-05-09T12:05:09;3.13;;;2.93;;
505;SDS011;551;48.524;9.056;2023-05-09T12:07:36;4.43;;;3.80;;
505;SDS011;551;48.524;9.056;2023-05-09T12:10:07;4.67;;;3.30;;
505;SDS011;551;48.524;9.056;2023-05-09T12:12:34;3.73;;;3.07;;
505;SDS011;551;48.524;9.056;2023-05-09T12:15:01;3.53;;;3.20;;
505;SDS011;551;48.524;9.056;2023-05-09T12:17:28;2.93;;;2.70;;
505;SDS011;551;48.524;9.056;2023-05-09T12:19:54;2.50;;;2.30;;
505;SDS011;551;48.524;9.056;2023-05-09T12:22:22;2.30;;;2.20;;
505;SDS011;551;48.524;9.056;2023-05-09T12:24:48;2.50;;;2.30;;
505;SDS011;551;48.524;9.056;2023-05-09T12:27:13;2.20;;;2.00;;
505;SDS011;551;48.524;9.056;2023-05-09T12:29:39;2.83;;;2.60;;
505;SDS011;551;48.524;9.056;2023-05-09T12:32:08;2.70;;;2.27;;
505;SDS011;551;48.524;9.056;2023-05-09T12:34:33;2.50;;;2.30;;
505;SDS011;551;48.524;9.056;2023-05-09T12:36:59;2.10;;;1.80;;
505;SDS011;551;48.524;9.056;2023-05-09T12:39:27;2.80;;;2.10;;
505;SDS011;551;48.524;9.056;2023-05-09T12:41:53;2.10;;;2.00;;
505;SDS011;551;48.524;9.056;2023-05-09T12:44:21;3.50;;;2.87;;
505;SDS011;551;48.524;9.056;2023-05-09T12:46:53;2.00;;;1.80;;
505;SDS011;551;48.524;9.056;2023-05-09T12:49:24;3.13;;;2.23;;
505;SDS011;551;48.524;9.056;2023-05-09T12:51:50;4.17;;;2.80;;
505;SDS011;551;48.524;9.056;2023-05-09T12:54:21;2.53;;;2.33;;
505;SDS011;551;48.524;9.056;2023-05-09T12:56:47;2.40;;;2.20;;
505;SDS011;551;48.524;9.056;2023-05-09T12:59:18;3.40;;;2.87;;
505;SDS011;551;48.524;9.056;2023-05-09T13:01:49;6.37;;;3.90;;
505;SDS011;551;48.524;9.056;2023-05-09T13:04:18;3.40;;;2.30;;
505;SDS011;551;48.524;9.056;2023-05-09T13:06:46;6.83;;;3.37;;
505;SDS011;551;48.524;9.056;2023-05-09T13:09:13;2.60;;;2.40;;
505;SDS011;551;48.524;9.056;2023-05-09T13:11:38;3.27;;;2.43;;
505;SDS011;551;48.524;9.056;2023-05-09T13:14:05;6.20;;;3.17;;
505;SDS011;551;48.524;9.056;2023-05-09T13:16:31;4.67;;;3.20;;
505;SDS011;551;48.524;9.056;2023-05-09T13:18:56;4.73;;;3.50;;
505;SDS011;551;48.524;9.056;2023-05-09T13:21:22;8.60;;;3.30;;
505;SDS011;551;48.524;9.056;2023-05-09T13:23:47;3.33;;;3.03;;
505;SDS011;551;48.524;9.056;2023-05-09T13:26:14;3.20;;;2.90;;
505;SDS011;551;48.524;9.056;2023-05-09T13:28:39;8.63;;;4.40;;
505;SDS011;551;48.524;9.056;2023-05-09T13:31:05;7.00;;;4.20;;
505;SDS011;551;48.524;9.056;2023-05-09T13:33:31;5.97;;;3.57;;
505;SDS011;551;48.524;9.056;2023-05-09T13:35:57;4.07;;;2.97;;
505;SDS011;551;48.524;9.056;2023-05-09T13:38:22;3.40;;;3.03;;
505;SDS011;551;48.524;9.056;2023-05-09T13:40:49;6.13;;;3.63;;
505;SDS011;551;48.524;9.056;2023-05-09T13:43:15;5.10;;;3.03;;
505;SDS011;551;48.524;9.056;2023-05-09T13:45:40;6.00;;;3.50;;
505;SDS011;551;48.524;9.056;2023-05-09T13:48:06;8.90;;;3.70;;
505;SDS011;551;48.524;9.056;2023-05-09T13:50:32;4.70;;;3.83;;
505;SDS011;551;48.524;9.056;2023-05-09T13:52:58;6.60;;;4.60;;
505;SDS011;551;48.524;9.056;2023-05-09T13:55:23;5.13;;;3.90;;
505;SDS011;551;48.524;9.056;2023-05-09T13:57:50;4.30;;;3.80;;
505;SDS011;551;48.524;9.056;2023-05-09T14:00:17;8.03;;;4.33;;
505;SDS011;551;48.524;9.056;2023-05-09T14:02:45;4.37;;;3.77;;
505;SDS011;551;48.524;9.056;2023-05-09T14:05:10;4.57;;;3.40;;
505;SDS011;551;48.524;9.056;2023-05-09T14:07:36;3.87;;;3.53;;
505;SDS011;551;48.524;9.056;2023-05-09T14:10:04;3.10;;;2.90;;
505;SDS011;551;48.524;9.056;2023-05-09T14:12:30;4.67;;;2.73;;
505;SDS011;551;48.524;9.056;2023-05-09T14:14:56;4.70;;;3.23;;
505;SDS011;551;48.524;9.056;2023-05-09T14:17:22;4.00;;;3.70;;
505;SDS011;551;48.524;9.056;2023-05-09T14:19:47;3.60;;;3.30;;
505;SDS011;551;48.524;9.056;2023-05-09T14:22:13;4.00;;;3.50;;
505;SDS011;551;48.524;9.056;2023-05-09T14:24:40;4.50;;;4.10;;
505;SDS011;551;48.524;9.056;2023-05-09T14:27:05;2.90;;;2.70;;
505;SDS011;551;48.524;9.056;2023-05-09T14:29:31;4.00;;;3.70;;
505;SDS011;551;48.524;9.056;2023-05-09T14:31:56;3.40;;;3.10;;
505;SDS011;551;48.524;9.056;2023-05-09T14:34:22;4.27;;;3.97;;
505;SDS011;551;48.524;9.056;2023-05-09T14:36:48;4.00;;;3.70;;
505;SDS011;551;48.524;9.056;2023-05-09T14:39:14;4.07;;;3.77;;
505;SDS011;551;48.524;9.056;2023-05-09T14:41:39;4.57;;;3.50;;
505;SDS011;551;48.524;9.056;2023-05-09T14:44:05;3.37;;;3.17;;
505;SDS011;551;48.524;9.056;2023-05-09T14:46:31;7.10;;;3.23;;
505;SDS011;551;48.524;9.056;2023-05-09T14:48:57;3.90;;;3.40;;
505;SDS011;551;48.524;9.056;2023-05-09T14:51:28;4.57;;;3.60;;
505;SDS011;551;48.524;9.056;2023-05-09T14:53:54;3.20;;;3.00;;
505;SDS011;551;48.524;9.056;2023-05-09T14:56:19;11.47;;;3.70;;
505;SDS011;551;48.524;9.056;2023-05-09T14:58:45;4.00;;;3.50;;
505;SDS011;551;48.524;9.056;2023-05-09T15:01:11;8.20;;;3.67;;
505;SDS011;551;48.524;9.056;2023-05-09T15:03:37;3.70;;;3.40;;
505;SDS011;551;48.524;9.056;2023-05-09T15:06:03;3.30;;;3.00;;
505;SDS011;551;48.524;9.056;2023-05-09T15:08:29;3.37;;;3.03;;
505;SDS011;551;48.524;9.056;2023-05-09T15:10:54;8.90;;;3.53;;
505;SDS011;551;48.524;9.056;2023-05-09T15:13:21;5.37;;;4.03;;
505;SDS011;551;48.524;9.056;2023-05-09T15:15:47;5.97;;;3.17;;
505;SDS011;551;48.524;9.056;2023-05-09T15:18:13;5.60;;;3.27;;
505;SDS011;551;48.524;9.056;2023-05-09T15:20:40;3.00;;;2.70;;
505;SDS011;551;48.524;9.056;2023-05-09T15:23:06;8.10;;;3.67;;
505;SDS011;551;48.524;9.056;2023-05-09T15:25:32;4.47;;;4.07;;
505;SDS011;551;48.524;9.056;2023-05-09T15:27:58;3.73;;;3.43;;
505;SDS011;551;48.524;9.056;2023-05-09T15:30:24;3.73;;;3.00;;
505;SDS011;551;48.524;9.056;2023-05-09T15:32:50;4.00;;;3.70;;
505;SDS011;551;48.524;9.056;2023-05-09T15:35:15;3.83;;;3.53;;
505;SDS011;551;48.524;9.056;2023-05-09T15:37:42;3.77;;;3.23;;
505;SDS011;551;48.524;9.056;2023-05-09T15:40:09;4.63;;;3.27;;